Time;durP1;ratioP1;P1;durP2;ratioP2;P2;SDS_P1;SDS_P2;PMS_P1;PMS_P2;Temp;Humidity;BMP_temperature;BMP_pressure;BME280_temperature;BME280_humidity;BME280_pressure;Samples;Min_cycle;Max_cycle;Signal;HPM_P1;HPM_P2
2022/04/01 00:00:58;;;;;;;5.70;2.67;;;1.70;99.90;;;;;;5040704;28;20382;-86
2022/04/01 00:03:23;;;;;;;6.90;3.03;;;1.60;99.90;;;;;;5008445;28;20096;-85
2022/04/01 00:05:49;;;;;;;5.93;2.72;;;1.50;99.90;;;;;;5028452;28;20038;-87
2022/04/01 00:08:15;;;;;;;6.10;2.67;;;1.50;99.90;;;;;;5048433;28;20039;-85
2022/04/01 00:10:40;;;;;;;7.80;3.55;;;1.50;99.90;;;;;;5034043;28;20057;-85
2022/04/01 00:13:07;;;;;;;7.88;3.60;;;1.50;99.90;;;;;;5026055;28;20034;-85
2022/04/01 00:15:33;;;;;;;8.50;3.58;;;1.50;99.90;;;;;;5035203;28;20029;-85
2022/04/01 00:18:00;;;;;;;7.78;3.22;;;1.50;99.90;;;;;;5012680;28;20026;-85
2022/04/01 00:20:27;;;;;;;6.43;3.58;;;1.50;99.90;;;;;;5015595;28;20042;-86
2022/04/01 00:22:53;;;;;;;9.35;3.70;;;1.50;99.90;;;;;;5033968;28;20034;-85
2022/04/01 00:25:19;;;;;;;9.77;3.90;;;1.50;99.90;;;;;;5002168;28;20031;-85
2022/04/01 00:27:45;;;;;;;13.98;4.97;;;1.60;99.90;;;;;;5020434;28;20037;-86
2022/04/01 00:30:11;;;;;;;8.63;3.53;;;1.60;99.90;;;;;;5003435;28;20402;-86
2022/04/01 00:32:37;;;;;;;10.50;4.05;;;1.60;99.90;;;;;;5009006;28;20038;-86
2022/04/01 00:35:04;;;;;;;9.32;4.72;;;1.60;99.90;;;;;;5019797;28;20034;-84
2022/04/01 00:37:30;;;;;;;15.30;6.25;;;1.60;99.90;;;;;;5026730;28;20156;-86
2022/04/01 00:39:56;;;;;;;11.18;5.05;;;1.60;99.90;;;;;;5026361;28;20057;-85
2022/04/01 00:42:23;;;;;;;9.13;4.53;;;1.70;99.90;;;;;;5012110;28;20034;-86
2022/04/01 00:44:48;;;;;;;8.40;3.50;;;1.70;99.90;;;;;;4998968;28;20029;-85
2022/04/01 00:47:15;;;;;;;8.82;3.58;;;1.70;99.90;;;;;;5017804;28;20158;-86
2022/04/01 00:49:42;;;;;;;12.75;4.43;;;1.70;99.90;;;;;;5024633;28;20034;-86
2022/04/01 00:52:09;;;;;;;15.75;5.10;;;1.60;99.90;;;;;;5030892;28;20047;-86
2022/04/01 00:54:37;;;;;;;16.60;6.05;;;1.60;99.90;;;;;;5021647;28;20041;-85
2022/04/01 00:57:04;;;;;;;11.45;4.45;;;1.70;99.90;;;;;;5025040;28;20017;-85
2022/04/01 00:59:30;;;;;;;13.48;4.97;;;1.70;99.90;;;;;;5025395;28;20057;-86
2022/04/01 01:01:56;;;;;;;11.18;5.85;;;1.80;99.90;;;;;;5041149;28;20073;-85
2022/04/01 01:04:22;;;;;;;10.10;4.90;;;1.80;99.90;;;;;;5032937;28;20034;-85
2022/04/01 01:06:50;;;;;;;9.00;4.32;;;1.90;99.90;;;;;;5025093;28;20380;-85
2022/04/01 01:09:16;;;;;;;10.32;4.13;;;1.90;99.90;;;;;;5044097;28;20026;-86
2022/04/01 01:11:44;;;;;;;10.80;3.65;;;2.00;99.90;;;;;;4996362;28;20034;-86
2022/04/01 01:14:13;;;;;;;11.02;5.03;;;2.00;99.90;;;;;;5017914;28;20030;-86
2022/04/01 01:16:44;;;;;;;11.05;4.18;;;2.00;99.90;;;;;;5022439;28;20025;-86
2022/04/01 01:19:17;;;;;;;11.10;4.65;;;2.00;99.90;;;;;;5012254;28;20030;-86
2022/04/01 01:21:45;;;;;;;10.75;4.55;;;1.90;99.90;;;;;;5024432;28;20121;-85
2022/04/01 01:24:16;;;;;;;10.57;3.95;;;1.80;99.90;;;;;;5014361;28;20026;-86
2022/04/01 01:26:44;;;;;;;11.57;4.35;;;1.80;99.90;;;;;;5012814;28;20034;-85
2022/04/01 01:29:11;;;;;;;12.60;5.82;;;1.80;99.90;;;;;;5019342;28;20492;-85
2022/04/01 01:31:37;;;;;;;10.68;5.30;;;1.90;99.90;;;;;;5024679;28;20050;-86
2022/04/01 01:34:04;;;;;;;10.75;4.13;;;1.90;99.90;;;;;;5025039;28;20041;-86
2022/04/01 01:36:30;;;;;;;9.30;3.95;;;1.90;99.90;;;;;;5003550;28;20022;-86
2022/04/01 01:38:57;;;;;;;9.90;4.57;;;1.90;99.90;;;;;;4993304;28;20092;-85
2022/04/01 01:41:22;;;;;;;8.32;3.40;;;1.90;99.90;;;;;;4999164;28;20105;-85
2022/04/01 01:43:49;;;;;;;10.10;4.50;;;1.80;99.90;;;;;;5000939;28;20468;-86
2022/04/01 01:46:15;;;;;;;8.98;3.53;;;1.80;99.90;;;;;;5019377;28;20033;-87
2022/04/01 01:48:41;;;;;;;9.13;3.90;;;1.80;99.90;;;;;;5012349;28;20042;-86
2022/04/01 01:56:39;;;;;;;7.88;3.58;;;1.90;99.90;;;;;;5040119;28;20055;-86
2022/04/01 01:59:05;;;;;;;8.85;4.13;;;1.80;99.90;;;;;;5012845;28;20535;-86
2022/04/01 02:01:32;;;;;;;9.25;4.00;;;1.90;99.90;;;;;;5026399;28;20042;-86
2022/04/01 02:04:00;;;;;;;9.98;3.85;;;1.90;99.90;;;;;;5025613;28;20034;-86
2022/04/01 02:06:26;;;;;;;10.68;4.70;;;1.90;99.90;;;;;;5049494;28;20113;-86
2022/04/01 02:08:53;;;;;;;8.90;3.75;;;1.90;99.90;;;;;;5024444;28;20053;-86
2022/04/01 02:11:22;;;;;;;7.57;2.95;;;1.90;99.90;;;;;;5013428;28;20030;-85
2022/04/01 02:13:48;;;;;;;10.18;5.03;;;1.90;99.90;;;;;;5049695;28;20091;-85
2022/04/01 02:16:14;;;;;;;14.35;5.03;;;1.90;99.90;;;;;;4997908;28;20022;-85
2022/04/01 02:18:43;;;;;;;7.45;3.13;;;2.00;99.90;;;;;;5012975;28;20021;-84
2022/04/01 02:21:15;;;;;;;12.02;4.95;;;1.90;99.90;;;;;;5029065;28;20025;-85
2022/04/01 02:23:43;;;;;;;11.93;4.15;;;1.80;99.90;;;;;;5028174;28;20029;-84
2022/04/01 02:26:09;;;;;;;9.38;3.90;;;1.80;99.90;;;;;;5011502;28;20030;-84
2022/04/01 02:28:38;;;;;;;11.90;4.68;;;1.80;99.90;;;;;;5010874;28;20432;-86
2022/04/01 02:31:05;;;;;;;10.35;4.18;;;1.70;99.90;;;;;;5011840;28;20042;-86
2022/04/01 02:33:32;;;;;;;8.68;3.55;;;1.70;99.90;;;;;;5010342;28;20083;-86
2022/04/01 02:35:59;;;;;;;7.93;3.95;;;1.70;99.90;;;;;;5020082;28;20030;-85
2022/04/01 02:38:29;;;;;;;6.95;3.20;;;1.70;99.90;;;;;;5012595;28;20091;-86
2022/04/01 02:40:57;;;;;;;8.00;3.38;;;1.70;99.90;;;;;;5005412;28;20125;-86
2022/04/01 02:43:25;;;;;;;9.75;3.65;;;1.60;99.90;;;;;;5006680;28;20041;-85
2022/04/01 02:45:51;;;;;;;8.57;3.80;;;1.60;99.90;;;;;;5009746;28;20018;-86
2022/04/01 02:48:18;;;;;;;8.38;3.08;;;1.60;99.90;;;;;;4993459;28;20543;-85
2022/04/01 02:50:47;;;;;;;7.25;3.42;;;1.60;99.90;;;;;;5027351;28;20177;-85
2022/04/01 02:53:13;;;;;;;9.02;3.90;;;1.60;99.90;;;;;;5044359;28;20045;-85
2022/04/01 02:55:39;;;;;;;6.63;3.10;;;1.50;99.90;;;;;;5017623;28;20032;-84
2022/04/01 02:58:09;;;;;;;16.52;4.40;;;1.50;99.90;;;;;;5018466;28;20030;-84
2022/04/01 03:00:37;;;;;;;10.77;4.80;;;1.50;99.90;;;;;;5009042;28;20030;-84
2022/04/01 03:03:06;;;;;;;13.05;4.68;;;1.40;99.90;;;;;;5042494;28;20759;-84
2022/04/01 03:05:45;;;;;;;14.30;4.25;;;1.50;99.90;;;;;;5008575;28;20037;-84
2022/04/01 03:08:11;;;;;;;12.48;4.18;;;1.40;99.90;;;;;;5004341;28;20025;-83
2022/04/01 03:10:42;;;;;;;11.77;4.63;;;1.40;99.90;;;;;;4990000;28;20042;-84
2022/04/01 03:13:08;;;;;;;13.80;4.18;;;1.40;99.90;;;;;;4996524;28;20033;-84
2022/04/01 03:15:34;;;;;;;21.48;4.97;;;1.50;99.90;;;;;;5041487;28;20045;-85
2022/04/01 03:18:00;;;;;;;22.65;5.00;;;1.50;99.90;;;;;;5055518;28;20100;-83
2022/04/01 03:20:29;;;;;;;55.80;10.32;;;1.40;99.90;;;;;;5011656;28;20088;-83
2022/04/01 03:22:57;;;;;;;19.92;5.55;;;1.40;99.90;;;;;;5010943;28;20029;-83
2022/04/01 03:25:23;;;;;;;21.33;5.57;;;1.50;99.90;;;;;;5009794;28;20033;-83
2022/04/01 03:27:50;;;;;;;15.48;4.65;;;1.40;99.90;;;;;;5012861;28;20034;-84
2022/04/01 03:30:17;;;;;;;32.70;7.80;;;1.20;99.90;;;;;;5029603;28;20439;-84
2022/04/01 03:32:45;;;;;;;17.25;5.70;;;1.20;99.90;;;;;;5030969;28;20034;-84
2022/04/01 03:35:15;;;;;;;19.00;5.25;;;1.20;99.90;;;;;;5030842;28;20045;-84
2022/04/01 03:37:41;;;;;;;33.60;6.20;;;1.30;99.90;;;;;;5029458;28;20022;-84
2022/04/01 03:40:08;;;;;;;31.50;6.85;;;1.30;99.90;;;;;;5018829;28;20029;-84
2022/04/01 03:42:34;;;;;;;47.25;8.98;;;1.40;99.90;;;;;;5024970;28;20453;-84
2022/04/01 03:45:03;;;;;;;42.75;9.15;;;1.40;99.90;;;;;;5030067;28;20037;-84
2022/04/01 03:47:41;;;;;;;18.55;5.78;;;1.50;99.90;;;;;;5022742;28;20477;-83
2022/04/01 03:50:12;;;;;;;47.75;9.25;;;1.40;99.90;;;;;;5011728;28;20075;-84
2022/04/01 03:52:38;;;;;;;62.08;10.35;;;1.40;99.90;;;;;;5016726;28;20105;-83
2022/04/01 03:55:06;;;;;;;18.38;5.30;;;1.40;99.90;;;;;;5021967;28;20034;-83
2022/04/01 03:57:38;;;;;;;16.55;6.18;;;1.50;99.90;;;;;;5021283;28;20050;-83
2022/04/01 04:00:07;;;;;;;43.25;10.07;;;1.40;99.90;;;;;;5019364;28;20152;-83
2022/04/01 04:02:34;;;;;;;29.20;5.88;;;1.40;99.90;;;;;;5007476;28;20046;-83
2022/04/01 04:05:01;;;;;;;46.75;9.63;;;1.40;99.90;;;;;;5025418;28;20064;-84
2022/04/01 04:07:27;;;;;;;16.52;5.05;;;1.20;99.90;;;;;;5022337;28;20502;-85
2022/04/01 04:09:53;;;;;;;16.38;5.13;;;1.10;99.90;;;;;;5011398;28;20088;-85
2022/04/01 04:12:22;;;;;;;47.58;8.77;;;1.10;99.90;;;;;;5016411;28;20033;-83
2022/04/01 04:14:53;;;;;;;86.82;14.80;;;1.20;99.90;;;;;;5012408;28;20076;-85
2022/04/01 04:17:45;;;;;;;22.00;5.68;;;1.20;99.90;;;;;;5014624;28;20030;-84
2022/04/01 04:20:30;;;;;;;33.15;6.05;;;1.30;99.90;;;;;;4997702;28;20034;-85
2022/04/01 04:23:13;;;;;;;34.00;6.13;;;1.30;99.90;;;;;;5008778;28;20022;-84
2022/04/01 04:25:42;;;;;;;13.40;4.35;;;1.30;99.90;;;;;;5015314;28;20468;-85
2022/04/01 04:28:10;;;;;;;17.33;5.80;;;1.20;99.90;;;;;;5012965;28;20070;-85
2022/04/01 04:30:53;;;;;;;17.88;5.35;;;1.10;99.90;;;;;;5005576;28;20073;-86
2022/04/01 04:33:23;;;;;;;16.73;5.57;;;1.20;99.90;;;;;;5010377;28;20054;-86
2022/04/01 04:35:49;;;;;;;21.83;6.00;;;1.30;99.90;;;;;;5019214;28;20104;-85
2022/04/01 04:38:16;;;;;;;16.25;5.78;;;1.20;99.90;;;;;;5026105;28;20033;-86
2022/04/01 04:40:43;;;;;;;21.83;6.45;;;1.20;99.90;;;;;;5040929;28;20412;-84
2022/04/01 04:43:12;;;;;;;22.77;6.63;;;1.20;99.90;;;;;;5017459;28;20032;-86
2022/04/01 04:45:38;;;;;;;14.83;5.67;;;1.20;99.90;;;;;;5019752;28;20494;-86
2022/04/01 04:48:05;;;;;;;17.80;6.22;;;1.20;99.90;;;;;;4999912;28;20485;-86
2022/04/01 04:50:32;;;;;;;18.63;6.43;;;1.20;99.90;;;;;;5011718;28;20033;-87
2022/04/01 04:52:57;;;;;;;27.85;8.57;;;1.10;99.90;;;;;;5004868;28;20049;-86
2022/04/01 04:55:24;;;;;;;21.92;6.65;;;1.10;99.90;;;;;;5025940;28;20030;-86
2022/04/01 04:57:52;;;;;;;27.30;8.32;;;1.20;99.90;;;;;;5022517;28;20025;-87
2022/04/01 05:00:19;;;;;;;23.98;8.43;;;1.30;99.90;;;;;;5028731;28;20160;-87
2022/04/01 05:02:45;;;;;;;27.25;8.85;;;1.20;99.90;;;;;;5047027;28;20094;-87
2022/04/01 05:05:51;;;;;;;16.02;6.10;;;1.30;99.90;;;;;;5020344;28;20176;-87
2022/04/01 05:09:11;;;;;;;19.33;7.15;;;1.20;99.90;;;;;;5024010;28;20409;-87
2022/04/01 05:12:02;;;;;;;23.13;5.97;;;1.20;99.90;;;;;;4993350;28;20038;-87
2022/04/01 05:14:47;;;;;;;17.25;5.18;;;1.20;99.90;;;;;;5001055;28;20093;-88
2022/04/01 05:17:26;;;;;;;14.25;5.38;;;1.20;99.90;;;;;;5027162;28;20396;-87
2022/04/01 05:20:00;;;;;;;28.83;7.82;;;1.40;99.90;;;;;;5018516;28;20072;-89
2022/04/01 05:22:45;;;;;;;27.33;7.13;;;1.40;99.90;;;;;;5045540;28;20043;-88
2022/04/01 05:25:17;;;;;;;19.75;6.60;;;1.30;99.90;;;;;;5030991;28;20072;-87
2022/04/01 05:27:48;;;;;;;20.15;6.05;;;1.50;99.90;;;;;;5019169;28;20135;-88
2022/04/01 05:30:20;;;;;;;20.15;6.60;;;1.50;99.90;;;;;;5014528;28;20046;-88
2022/04/01 05:32:58;;;;;;;13.80;5.05;;;1.50;99.90;;;;;;5008336;28;20095;-88
2022/04/01 05:35:35;;;;;;;10.45;4.85;;;1.50;99.90;;;;;;4997546;28;20022;-89
2022/04/01 05:38:01;;;;;;;19.02;6.43;;;1.60;99.90;;;;;;5015284;28;20072;-88
2022/04/01 05:40:28;;;;;;;20.65;6.35;;;1.70;99.90;;;;;;5003419;28;20396;-87
2022/04/01 05:42:59;;;;;;;13.18;5.45;;;1.60;99.90;;;;;;5026788;28;20025;-88
2022/04/01 05:45:29;;;;;;;9.75;4.30;;;1.70;99.90;;;;;;5010861;28;20052;-88
2022/04/01 05:47:56;;;;;;;25.60;7.43;;;1.70;99.90;;;;;;5003091;28;20061;-86
2022/04/01 05:50:23;;;;;;;15.38;5.05;;;1.70;99.90;;;;;;5033555;28;20453;-88
2022/04/01 05:52:50;;;;;;;21.05;5.55;;;1.70;99.90;;;;;;5002866;28;20061;-88
2022/04/01 05:55:19;;;;;;;19.27;6.15;;;1.50;99.90;;;;;;5028658;28;20629;-89
2022/04/01 05:57:45;;;;;;;16.58;6.35;;;1.50;99.90;;;;;;5022020;28;20084;-88
2022/04/01 06:00:14;;;;;;;24.95;6.32;;;1.60;99.90;;;;;;5023590;28;20049;-87
2022/04/01 06:03:07;;;;;;;21.50;6.03;;;1.70;99.90;;;;;;5030728;28;20045;-87
2022/04/01 06:06:01;;;;;;;23.63;7.13;;;1.70;99.90;;;;;;5013364;28;20022;-87
2022/04/01 06:08:50;;;;;;;11.48;4.90;;;1.90;99.90;;;;;;5007205;28;20029;-87
2022/04/01 06:11:49;;;;;;;16.70;6.07;;;1.80;99.90;;;;;;5000707;28;20095;-87
2022/04/01 06:14:29;;;;;;;19.42;6.35;;;2.00;99.90;;;;;;5007839;28;20049;-87
2022/04/01 06:17:12;;;;;;;13.20;4.63;;;2.00;99.90;;;;;;5012033;28;20076;-87
2022/04/01 06:19:44;;;;;;;15.63;5.57;;;1.90;99.90;;;;;;5047630;28;20552;-87
2022/04/01 06:22:18;;;;;;;12.70;3.90;;;1.90;99.90;;;;;;5011210;28;20022;-87
2022/04/01 06:24:53;;;;;;;10.63;4.28;;;2.00;99.90;;;;;;5060377;28;20034;-87
2022/04/01 06:27:25;;;;;;;14.30;4.80;;;2.00;99.90;;;;;;5003592;28;20631;-87
2022/04/01 06:30:11;;;;;;;12.15;4.43;;;2.10;99.90;;;;;;5024918;28;20045;-87
2022/04/01 06:33:04;;;;;;;6.57;3.25;;;2.30;99.90;;;;;;5009482;28;20030;-87
2022/04/01 06:35:50;;;;;;;10.20;4.15;;;2.20;99.90;;;;;;5027751;28;20038;-87
2022/04/01 06:38:33;;;;;;;6.20;3.47;;;2.30;99.90;;;;;;5007923;28;20220;-87
2022/04/01 06:41:05;;;;;;;6.07;3.03;;;2.10;99.90;;;;;;5049189;28;20033;-87
2022/04/01 06:43:31;;;;;;;9.45;3.80;;;2.30;99.90;;;;;;4999260;28;20034;-87
2022/04/01 06:45:57;;;;;;;8.85;3.90;;;2.30;99.90;;;;;;5012057;28;20492;-87
2022/04/01 06:48:22;;;;;;;7.00;3.85;;;2.40;99.90;;;;;;4998988;28;20505;-87
2022/04/01 06:50:51;;;;;;;7.25;3.38;;;2.50;99.90;;;;;;5022756;28;20029;-87
2022/04/01 06:53:18;;;;;;;7.50;3.33;;;2.50;99.90;;;;;;5030182;28;20026;-87
2022/04/01 06:55:44;;;;;;;6.57;3.20;;;2.50;99.90;;;;;;5022423;28;20063;-87
2022/04/01 06:58:11;;;;;;;6.95;3.40;;;2.50;99.90;;;;;;5023152;28;20022;-87
2022/04/01 07:00:42;;;;;;;7.10;3.00;;;2.30;99.90;;;;;;5061168;28;20037;-86
2022/04/01 07:03:09;;;;;;;6.47;2.65;;;2.20;99.90;;;;;;5026976;28;20021;-87
2022/04/01 07:05:35;;;;;;;6.78;3.63;;;2.20;99.90;;;;;;5034674;28;20057;-87
2022/04/01 07:08:03;;;;;;;10.93;3.85;;;2.30;99.90;;;;;;5011235;28;20649;-87
2022/04/01 07:10:29;;;;;;;7.03;2.78;;;2.40;99.90;;;;;;5010733;28;20076;-86
2022/04/01 07:12:55;;;;;;;8.00;3.40;;;2.50;99.90;;;;;;4992457;28;20424;-86
2022/04/01 07:15:21;;;;;;;9.40;3.50;;;2.50;99.90;;;;;;4979905;28;20045;-87
2022/04/01 07:17:47;;;;;;;9.43;3.47;;;2.50;99.90;;;;;;5007892;28;20497;-86
2022/04/01 07:20:13;;;;;;;6.03;2.90;;;2.50;99.90;;;;;;5012699;28;20036;-86
2022/04/01 07:22:40;;;;;;;9.02;2.95;;;2.60;99.90;;;;;;5010035;28;20045;-86
2022/04/01 07:25:07;;;;;;;5.70;2.65;;;2.50;99.90;;;;;;5023134;28;20029;-86
2022/04/01 07:27:34;;;;;;;3.45;1.90;;;2.30;99.90;;;;;;5007298;28;20038;-86
2022/04/01 07:29:59;;;;;;;5.13;2.35;;;2.40;99.90;;;;;;5010138;28;20396;-86
2022/04/01 07:32:30;;;;;;;5.82;1.98;;;2.30;99.90;;;;;;5006206;28;20030;-86
2022/04/01 07:34:56;;;;;;;3.30;1.75;;;2.50;99.90;;;;;;5005788;28;20041;-85
2022/04/01 07:37:24;;;;;;;3.40;2.10;;;2.60;99.90;;;;;;5014174;28;20029;-86
2022/04/01 07:39:51;;;;;;;2.47;1.40;;;2.50;99.90;;;;;;5023240;28;20025;-86
2022/04/01 07:42:21;;;;;;;3.75;1.50;;;2.50;99.90;;;;;;5017840;28;20088;-86
2022/04/01 07:44:48;;;;;;;2.78;1.52;;;2.40;99.90;;;;;;5006341;28;20100;-86
2022/04/01 07:47:14;;;;;;;3.38;1.73;;;2.40;99.90;;;;;;5016562;28;20034;-85
2022/04/01 07:49:41;;;;;;;2.08;1.17;;;2.50;99.90;;;;;;5039065;28;20034;-86
2022/04/01 07:52:12;;;;;;;3.92;1.63;;;2.70;99.90;;;;;;5030215;28;20054;-86
2022/04/01 07:54:40;;;;;;;2.58;1.15;;;2.70;99.90;;;;;;5016565;28;20029;-86
2022/04/01 07:57:07;;;;;;;2.90;1.40;;;2.70;99.90;;;;;;5028934;28;20050;-86
2022/04/01 07:59:34;;;;;;;2.03;1.20;;;2.80;99.90;;;;;;5014041;28;20038;-86
2022/04/01 08:02:01;;;;;;;2.67;1.63;;;2.80;99.90;;;;;;5018146;28;20128;-87
2022/04/01 08:04:27;;;;;;;1.65;1.15;;;2.90;99.90;;;;;;5009456;28;20450;-86
2022/04/01 08:06:56;;;;;;;2.40;1.10;;;2.80;99.90;;;;;;5003497;28;20034;-86
2022/04/01 08:09:23;;;;;;;2.15;1.02;;;2.70;99.90;;;;;;5010940;28;20096;-86
2022/04/01 08:11:50;;;;;;;3.90;1.30;;;2.70;99.90;;;;;;5008440;28;20229;-87
2022/04/01 08:14:17;;;;;;;3.50;1.10;;;2.70;99.90;;;;;;5014023;28;20125;-86
2022/04/01 08:16:43;;;;;;;2.08;1.20;;;2.70;99.90;;;;;;5053564;28;20076;-86
2022/04/01 08:19:09;;;;;;;0.90;0.70;;;2.90;99.90;;;;;;5013105;28;20548;-86
2022/04/01 08:21:35;;;;;;;1.08;0.75;;;2.70;99.90;;;;;;5024827;28;20072;-85
2022/04/01 08:24:01;;;;;;;1.77;0.90;;;2.40;99.90;;;;;;5015590;28;20048;-86
2022/04/01 08:26:28;;;;;;;1.73;1.00;;;2.40;99.90;;;;;;5025520;28;20026;-86
2022/04/01 08:28:54;;;;;;;1.65;0.90;;;2.40;99.90;;;;;;5025247;28;20037;-86
2022/04/01 08:31:20;;;;;;;3.70;0.90;;;2.30;99.90;;;;;;5025424;28;20061;-86
2022/04/01 08:33:47;;;;;;;1.30;0.90;;;2.40;99.90;;;;;;5056878;28;20030;-86
2022/04/01 08:36:14;;;;;;;1.35;0.82;;;2.30;99.90;;;;;;5036165;28;20116;-86
2022/04/01 08:38:40;;;;;;;1.35;0.95;;;2.40;99.90;;;;;;5018006;28;20049;-86
2022/04/01 08:41:07;;;;;;;1.90;0.80;;;2.30;99.90;;;;;;5013143;28;20080;-86
2022/04/01 08:43:39;;;;;;;1.73;1.10;;;2.30;99.90;;;;;;5023565;28;20354;-86
2022/04/01 08:46:08;;;;;;;1.40;1.00;;;2.40;99.90;;;;;;5018531;28;20412;-86
2022/04/01 08:48:35;;;;;;;5.22;2.47;;;2.30;99.90;;;;;;4996793;28;20397;-86
2022/04/01 08:51:02;;;;;;;2.17;1.13;;;2.30;99.90;;;;;;5009738;28;20064;-86
2022/04/01 08:53:27;;;;;;;1.42;0.63;;;2.40;99.90;;;;;;5017929;28;20087;-85
2022/04/01 08:55:55;;;;;;;3.03;1.08;;;2.50;99.90;;;;;;5024136;28;20029;-85
2022/04/01 08:58:23;;;;;;;3.13;1.83;;;2.30;99.90;;;;;;5018983;28;20036;-85
2022/04/01 09:00:52;;;;;;;0.98;0.70;;;2.40;99.90;;;;;;5021286;28;20068;-85
2022/04/01 09:03:21;;;;;;;2.10;0.80;;;2.20;99.90;;;;;;5021753;28;20021;-85
2022/04/01 09:06:02;;;;;;;1.30;0.70;;;2.20;99.90;;;;;;5003376;28;20165;-86
2022/04/01 09:08:30;;;;;;;1.98;1.35;;;2.10;99.90;;;;;;5016510;28;20028;-86
2022/04/01 09:11:01;;;;;;;2.25;1.10;;;2.10;99.90;;;;;;5019077;28;20051;-84
2022/04/01 09:13:51;;;;;;;2.58;1.10;;;2.00;99.90;;;;;;5015628;28;20104;-86
2022/04/01 09:16:31;;;;;;;2.00;0.75;;;2.10;99.90;;;;;;5025747;28;20096;-85
2022/04/01 09:19:02;;;;;;;2.33;1.20;;;2.20;99.90;;;;;;5017487;28;20021;-86
2022/04/01 09:21:39;;;;;;;2.25;1.30;;;2.20;99.90;;;;;;5022481;28;20368;-83
2022/04/01 09:24:06;;;;;;;1.77;1.00;;;2.40;99.90;;;;;;4993183;28;20569;-84
2022/04/01 09:26:35;;;;;;;1.35;0.90;;;2.30;99.90;;;;;;5021155;28;20025;-84
2022/04/01 09:29:02;;;;;;;2.47;0.95;;;2.30;99.90;;;;;;5015529;28;20048;-84
2022/04/01 09:31:33;;;;;;;0.98;0.85;;;2.40;99.90;;;;;;5012253;28;20128;-84
2022/04/01 09:34:00;;;;;;;2.78;1.05;;;2.30;99.90;;;;;;5021403;28;20029;-85
2022/04/01 09:36:33;;;;;;;1.88;0.80;;;2.40;99.90;;;;;;5017438;28;20882;-85
2022/04/01 09:39:01;;;;;;;1.42;0.77;;;2.40;99.90;;;;;;5018042;28;20046;-84
2022/04/01 09:41:31;;;;;;;1.17;0.90;;;2.30;99.90;;;;;;5006761;28;20050;-85
2022/04/01 09:44:02;;;;;;;3.13;0.98;;;2.30;99.90;;;;;;5020006;28;20114;-84
2022/04/01 09:46:28;;;;;;;2.80;0.90;;;2.40;99.90;;;;;;5021328;28;20022;-85
2022/04/01 09:48:58;;;;;;;2.08;1.05;;;2.50;99.90;;;;;;5039482;28;20037;-85
2022/04/01 09:51:28;;;;;;;;;;;2.50;99.90;;;;;;5035631;28;20036;-85
2022/04/01 09:53:58;;;;;;;2.92;0.70;;;2.50;99.90;;;;;;5029743;28;19999;-84
2022/04/01 09:56:44;;;;;;;2.58;1.20;;;2.30;99.90;;;;;;5068585;28;20030;-84
2022/04/01 09:59:14;;;;;;;1.52;0.88;;;2.30;99.90;;;;;;5024063;28;20021;-84
2022/04/01 10:01:42;;;;;;;1.85;1.00;;;2.30;99.90;;;;;;5013115;28;20102;-84
2022/04/01 10:04:09;;;;;;;1.88;1.20;;;2.30;99.90;;;;;;5009110;28;20494;-84
2022/04/01 10:06:36;;;;;;;3.13;1.42;;;2.20;99.90;;;;;;5027731;28;20236;-84
2022/04/01 10:09:11;;;;;;;3.40;1.35;;;2.00;99.90;;;;;;5044566;28;20052;-84
2022/04/01 10:11:40;;;;;;;2.25;1.33;;;2.00;99.90;;;;;;5014140;28;20034;-84
2022/04/01 10:14:16;;;;;;;2.60;1.40;;;2.10;99.90;;;;;;5009549;28;20033;-85
2022/04/01 10:16:44;;;;;;;3.05;1.73;;;2.10;99.90;;;;;;5007885;28;20026;-84
2022/04/01 10:19:14;;;;;;;2.78;1.27;;;2.10;99.90;;;;;;4999589;28;20102;-84
2022/04/01 10:21:44;;;;;;;0.98;0.82;;;1.90;99.90;;;;;;5010583;28;20575;-84
2022/04/01 10:24:13;;;;;;;1.67;1.20;;;1.90;99.90;;;;;;5009085;28;20401;-85
2022/04/01 10:26:46;;;;;;;3.55;1.60;;;2.10;99.90;;;;;;5026145;28;20109;-85
2022/04/01 10:29:12;;;;;;;3.45;1.58;;;2.10;99.90;;;;;;5042161;28;20385;-86
2022/04/01 10:31:39;;;;;;;2.45;1.40;;;2.20;99.90;;;;;;5009537;28;20519;-86
2022/04/01 10:34:22;;;;;;;3.72;1.40;;;2.30;99.90;;;;;;5012670;28;20053;-85
2022/04/01 10:36:57;;;;;;;3.72;1.92;;;2.40;99.90;;;;;;5021577;28;20069;-85
2022/04/01 10:39:24;;;;;;;2.25;1.35;;;2.50;99.90;;;;;;5052955;28;20036;-85
2022/04/01 10:42:12;;;;;;;3.70;1.85;;;2.50;99.90;;;;;;5014896;28;20025;-85
2022/04/01 10:44:49;;;;;;;4.57;2.22;;;2.60;99.90;;;;;;5011235;28;20080;-85
2022/04/01 10:47:15;;;;;;;2.45;1.50;;;2.60;99.90;;;;;;5016723;28;20381;-85
2022/04/01 10:52:25;;;;;;;3.65;1.60;;;2.60;99.90;;;;;;5023858;28;20432;-85
2022/04/01 10:55:07;;;;;;;2.50;1.80;;;2.60;99.90;;;;;;5009131;28;20022;-85
2022/04/01 10:58:06;;;;;;;3.38;1.67;;;2.50;99.90;;;;;;5015024;28;20116;-86
2022/04/01 11:00:33;;;;;;;2.88;1.63;;;2.50;99.90;;;;;;5004901;28;20030;-85
2022/04/01 11:03:22;;;;;;;3.05;2.10;;;2.60;99.90;;;;;;4999371;28;20084;-85
2022/04/01 11:05:48;;;;;;;3.00;1.75;;;2.70;99.90;;;;;;5011351;28;20052;-85
2022/04/01 11:08:20;;;;;;;5.47;2.00;;;2.80;99.90;;;;;;5042006;28;20026;-86
2022/04/01 11:11:09;;;;;;;5.60;2.72;;;2.90;99.90;;;;;;5010905;28;20022;-86
2022/04/01 11:13:36;;;;;;;3.33;1.67;;;2.80;99.90;;;;;;5042401;28;20030;-86
2022/04/01 11:16:20;;;;;;;3.03;1.58;;;2.70;99.90;;;;;;5028641;28;20062;-86
2022/04/01 11:19:25;;;;;;;3.33;2.10;;;2.80;99.90;;;;;;5020724;28;20040;-85
2022/04/01 11:21:51;;;;;;;3.05;1.77;;;2.80;99.90;;;;;;5021523;28;20022;-85
2022/04/01 11:24:24;;;;;;;5.22;1.80;;;2.90;99.90;;;;;;5019585;28;20119;-85
2022/04/01 11:26:50;;;;;;;5.10;1.98;;;2.80;99.90;;;;;;5017324;28;20040;-85
2022/04/01 11:29:22;;;;;;;2.95;1.67;;;2.90;99.90;;;;;;5009697;28;20294;-86
2022/04/01 11:31:48;;;;;;;3.40;1.77;;;2.90;99.90;;;;;;5011534;28;20054;-85
2022/04/01 11:34:14;;;;;;;3.60;2.10;;;2.80;99.90;;;;;;5009405;28;20049;-85
2022/04/01 11:36:42;;;;;;;3.10;2.05;;;2.80;99.90;;;;;;5003057;28;20080;-84
2022/04/01 11:39:10;;;;;;;3.65;1.65;;;2.80;99.90;;;;;;5046031;28;20034;-85
2022/04/01 11:41:51;;;;;;;1.75;1.00;;;2.70;99.90;;;;;;5023538;28;20049;-85
2022/04/01 11:44:17;;;;;;;3.13;1.73;;;2.90;99.90;;;;;;5022683;28;20794;-86
2022/04/01 11:46:53;;;;;;;3.45;2.13;;;2.90;99.90;;;;;;5026908;28;20046;-85
2022/04/01 11:49:19;;;;;;;3.20;1.92;;;2.80;99.90;;;;;;5016422;28;20480;-85
2022/04/01 11:51:45;;;;;;;2.83;1.80;;;2.90;99.90;;;;;;5021000;28;20025;-84
2022/04/01 11:54:10;;;;;;;3.70;1.50;;;2.80;99.90;;;;;;5018424;28;20030;-84
2022/04/01 11:56:36;;;;;;;1.90;1.10;;;2.60;99.90;;;;;;5002502;28;20037;-84
2022/04/01 11:59:04;;;;;;;2.67;0.85;;;2.50;99.90;;;;;;5018486;28;20057;-87
2022/04/01 12:01:54;;;;;;;2.33;1.58;;;2.40;99.90;;;;;;5016992;28;20484;-85
2022/04/01 12:04:27;;;;;;;2.22;1.00;;;2.30;99.90;;;;;;5016959;28;20071;-86
2022/04/01 12:09:36;;;;;;;4.00;1.58;;;2.20;99.90;;;;;;5013147;28;20076;-86
2022/04/01 12:12:02;;;;;;;3.13;1.60;;;2.40;99.90;;;;;;5048906;28;20428;-86
2022/04/01 12:14:28;;;;;;;3.08;2.00;;;2.40;99.90;;;;;;5043942;28;20021;-86
2022/04/01 12:16:54;;;;;;;2.88;1.55;;;2.30;99.90;;;;;;5026066;28;20045;-85
2022/04/01 12:19:21;;;;;;;3.55;1.73;;;2.30;99.90;;;;;;5029262;28;20045;-84
2022/04/01 12:21:53;;;;;;;3.42;2.05;;;2.40;99.90;;;;;;5019183;28;20120;-86
2022/04/01 12:24:19;;;;;;;3.40;1.83;;;2.70;99.90;;;;;;5036935;28;20025;-86
2022/04/01 12:26:47;;;;;;;3.42;2.30;;;3.00;99.90;;;;;;5014814;28;20046;-86
2022/04/01 12:29:23;;;;;;;1.80;1.23;;;3.10;99.90;;;;;;4994707;28;20477;-86
2022/04/01 12:32:09;;;;;;;3.08;1.30;;;3.10;99.90;;;;;;5031245;28;20049;-84
2022/04/01 12:34:35;;;;;;;2.33;1.50;;;2.90;99.90;;;;;;5030708;28;20173;-84
2022/04/01 12:37:03;;;;;;;2.72;1.60;;;2.90;99.90;;;;;;5018488;28;20022;-85
2022/04/01 12:39:31;;;;;;;2.65;1.50;;;2.90;99.90;;;;;;5012657;28;20057;-85
2022/04/01 12:42:06;;;;;;;2.67;1.60;;;2.90;99.90;;;;;;5016227;28;20132;-84
2022/04/01 12:44:34;;;;;;;2.38;1.50;;;2.50;99.90;;;;;;5012761;28;20036;-83
2022/04/01 12:47:03;;;;;;;3.15;1.80;;;2.40;99.90;;;;;;5023394;28;20026;-85
2022/04/01 12:49:32;;;;;;;2.45;1.50;;;2.60;99.90;;;;;;5006575;28;20499;-84
2022/04/01 12:52:13;;;;;;;3.22;1.63;;;2.90;99.90;;;;;;5009891;28;20037;-83
2022/04/01 12:54:49;;;;;;;2.60;1.60;;;3.30;99.90;;;;;;5017706;28;20034;-87
2022/04/01 12:57:19;;;;;;;2.53;1.67;;;3.10;99.90;;;;;;5004305;28;20034;-88
2022/04/01 12:59:46;;;;;;;3.05;1.83;;;2.90;99.90;;;;;;5054873;28;20034;-86
2022/04/01 13:02:17;;;;;;;2.25;1.60;;;2.90;99.90;;;;;;5031365;28;20523;-87
2022/04/01 13:04:46;;;;;;;2.95;1.83;;;2.90;99.90;;;;;;5052949;28;20124;-86
2022/04/01 13:07:15;;;;;;;2.63;1.90;;;2.70;99.90;;;;;;5027338;28;20040;-88
2022/04/01 13:09:45;;;;;;;3.50;2.00;;;2.60;99.90;;;;;;5024335;28;20056;-85
2022/04/01 13:12:11;;;;;;;3.20;2.17;;;2.60;99.90;;;;;;5016653;28;20361;-85
2022/04/01 13:14:36;;;;;;;3.50;1.70;;;2.80;99.90;;;;;;5013983;28;20095;-86
2022/04/01 13:17:14;;;;;;;3.80;2.20;;;2.90;99.90;;;;;;4997169;28;20025;-86
2022/04/01 13:19:43;;;;;;;2.80;2.30;;;3.00;99.90;;;;;;5019182;28;20480;-86